Time;durP1;ratioP1;P1;durP2;ratioP2;P2;SDS_P1;SDS_P2;PMS_P1;PMS_P2;Temp;Humidity;BMP_temperature;BMP_pressure;BME280_temperature;BME280_humidity;BME280_pressure;Samples;Min_cycle;Max_cycle;Signal;HPM_P1;HPM_P2
2023/01/15 00:00:13;;;;;;;0.77;0.77;;;9.00;99.90;;;;;;4957796;28;20181;-83
2023/01/15 00:02:39;;;;;;;0.47;0.47;;;9.00;99.90;;;;;;4957931;28;20198;-83
2023/01/15 00:05:05;;;;;;;0.63;0.57;;;9.00;99.90;;;;;;4958001;28;20178;-83
2023/01/15 00:07:31;;;;;;;0.40;0.40;;;9.00;99.90;;;;;;4957762;28;20259;-83
2023/01/15 00:09:57;;;;;;;0.47;0.40;;;9.00;99.90;;;;;;4957768;28;20608;-83
2023/01/15 00:12:22;;;;;;;0.63;0.40;;;9.00;99.90;;;;;;4975018;28;20744;-83
2023/01/15 00:14:48;;;;;;;0.50;0.50;;;9.00;99.90;;;;;;4975180;28;20193;-83
2023/01/15 00:17:14;;;;;;;0.50;0.50;;;9.10;99.90;;;;;;4957594;28;20184;-82
2023/01/15 00:19:39;;;;;;;0.40;0.40;;;9.10;99.90;;;;;;4957790;28;20172;-83
2023/01/15 00:22:05;;;;;;;0.40;0.40;;;9.10;99.90;;;;;;4957732;28;20310;-83
2023/01/15 00:29:58;;;;;;;0.20;0.20;;;9.10;99.90;;;;;;4974060;28;20170;-83
2023/01/15 00:32:26;;;;;;;0.40;0.40;;;9.10;99.90;;;;;;4974974;28;20195;-83
2023/01/15 00:34:52;;;;;;;0.30;0.30;;;9.10;99.90;;;;;;4957168;28;20183;-83
2023/01/15 00:37:17;;;;;;;0.40;0.40;;;9.10;99.90;;;;;;4957683;28;20635;-82
2023/01/15 00:39:43;;;;;;;0.53;0.40;;;9.10;99.90;;;;;;4957368;28;20564;-82
2023/01/15 00:42:10;;;;;;;1.90;0.40;;;9.20;99.90;;;;;;4957422;28;20205;-83
2023/01/15 00:44:36;;;;;;;0.23;0.23;;;9.20;99.90;;;;;;4956994;28;20261;-83
2023/01/15 00:47:02;;;;;;;0.50;0.50;;;9.20;99.90;;;;;;4974653;28;20267;-83
2023/01/15 00:49:27;;;;;;;0.57;0.57;;;9.10;99.90;;;;;;4957108;28;20190;-83
2023/01/15 00:51:53;;;;;;;0.93;0.40;;;9.20;99.90;;;;;;4974282;28;20206;-83
2023/01/15 00:54:19;;;;;;;0.40;0.40;;;9.20;99.90;;;;;;4957303;28;20189;-83
2023/01/15 00:56:45;;;;;;;0.50;0.50;;;9.20;99.90;;;;;;4957129;28;20212;-83
2023/01/15 00:59:11;;;;;;;0.40;0.40;;;9.20;99.90;;;;;;4956869;28;20566;-83
2023/01/15 01:01:36;;;;;;;0.47;0.47;;;9.20;99.90;;;;;;4973988;28;20202;-83
2023/01/15 01:04:02;;;;;;;0.50;0.50;;;9.10;99.90;;;;;;4957108;28;20208;-83
2023/01/15 01:06:28;;;;;;;0.50;0.50;;;9.20;99.90;;;;;;4974344;28;20180;-83
2023/01/15 01:08:55;;;;;;;0.50;0.50;;;9.10;99.90;;;;;;4974314;28;20187;-83
2023/01/15 01:11:25;;;;;;;0.50;0.50;;;9.10;99.90;;;;;;4975076;28;20214;-81
2023/01/15 01:13:51;;;;;;;0.63;0.50;;;9.10;99.90;;;;;;4956600;28;20219;-83
2023/01/15 01:16:24;;;;;;;0.40;0.40;;;9.10;99.90;;;;;;4956773;28;20203;-83
2023/01/15 01:18:50;;;;;;;0.50;0.50;;;9.10;99.90;;;;;;4974154;28;20230;-83
2023/01/15 01:21:16;;;;;;;0.40;0.40;;;9.10;99.90;;;;;;4956537;28;20200;-83
2023/01/15 01:23:42;;;;;;;0.30;0.30;;;9.10;99.90;;;;;;4956916;28;20179;-83
2023/01/15 01:26:08;;;;;;;0.40;0.37;;;9.20;99.90;;;;;;4956560;28;20194;-83
2023/01/15 01:28:34;;;;;;;0.50;0.50;;;9.10;99.90;;;;;;4956442;28;20245;-83
2023/01/15 01:31:04;;;;;;;0.53;0.50;;;9.10;99.90;;;;;;4956573;28;20215;-83
2023/01/15 01:33:29;;;;;;;0.20;0.20;;;9.10;99.90;;;;;;4974016;28;20183;-83
2023/01/15 01:35:55;;;;;;;0.30;0.30;;;9.10;99.90;;;;;;4973527;28;20207;-83
2023/01/15 01:38:20;;;;;;;0.40;0.40;;;9.10;99.90;;;;;;4956699;28;20183;-83
2023/01/15 01:40:46;;;;;;;0.43;0.43;;;9.10;99.90;;;;;;4957956;28;20209;-83
2023/01/15 01:43:27;;;;;;;0.60;0.43;;;9.00;99.90;;;;;;4977847;28;20195;-83
2023/01/15 01:45:53;;;;;;;0.47;0.47;;;9.00;99.90;;;;;;4977650;28;20166;-83
2023/01/15 01:48:25;;;;;;;0.20;0.20;;;9.00;99.90;;;;;;4960271;28;20206;-83
2023/01/15 01:50:53;;;;;;;0.30;0.30;;;9.10;99.90;;;;;;4960008;28;20174;-83
2023/01/15 01:53:26;;;;;;;1.47;0.40;;;9.00;99.90;;;;;;4977825;28;20195;-83
2023/01/15 01:55:52;;;;;;;0.60;0.60;;;9.00;99.90;;;;;;4960211;28;20205;-83
2023/01/15 01:58:20;;;;;;;0.40;0.40;;;9.00;99.90;;;;;;4960436;28;20223;-83
2023/01/15 02:00:49;;;;;;;0.30;0.30;;;9.00;99.90;;;;;;4960278;28;20178;-83
2023/01/15 02:03:16;;;;;;;0.30;0.30;;;9.10;99.90;;;;;;4960288;28;20203;-83
2023/01/15 02:05:50;;;;;;;0.43;0.43;;;9.10;99.90;;;;;;4960284;28;20231;-83
2023/01/15 02:08:16;;;;;;;0.27;0.23;;;8.80;99.90;;;;;;4960199;28;20178;-83
2023/01/15 02:10:41;;;;;;;0.30;0.27;;;8.50;99.90;;;;;;4959759;28;20188;-83
2023/01/15 02:13:32;;;;;;;0.20;0.20;;;8.30;99.90;;;;;;4959887;28;20221;-84
2023/01/15 02:16:12;;;;;;;0.17;0.17;;;8.20;99.90;;;;;;4977204;28;20202;-83
2023/01/15 02:19:13;;;;;;;0.30;0.20;;;8.10;99.90;;;;;;4959688;28;20182;-83
2023/01/15 02:21:55;;;;;;;0.87;0.20;;;8.00;99.90;;;;;;4909410;28;20235;-83
2023/01/15 02:24:29;;;;;;;0.10;0.10;;;8.00;99.90;;;;;;4959754;28;20191;-83
2023/01/15 02:27:20;;;;;;;0.10;0.10;;;8.00;99.90;;;;;;4959576;28;20273;-83
2023/01/15 02:30:09;;;;;;;0.10;0.10;;;7.90;99.90;;;;;;4976962;28;20175;-83
2023/01/15 02:32:42;;;;;;;0.77;0.30;;;7.80;99.90;;;;;;4976954;28;20200;-83
2023/01/15 02:35:26;;;;;;;0.00;0.00;;;7.80;99.90;;;;;;4959802;28;20269;-83
2023/01/15 02:37:56;;;;;;;0.10;0.10;;;7.70;99.90;;;;;;4959809;28;20172;-83
2023/01/15 02:40:24;;;;;;;0.30;0.30;;;7.70;99.90;;;;;;4959532;28;20184;-83
2023/01/15 02:42:50;;;;;;;0.20;0.20;;;7.70;99.90;;;;;;4959516;28;20200;-83
2023/01/15 02:45:23;;;;;;;0.30;0.20;;;7.60;99.90;;;;;;4976827;28;20183;-83
2023/01/15 02:47:51;;;;;;;0.23;0.23;;;7.60;99.90;;;;;;4976734;28;20164;-83
2023/01/15 02:50:21;;;;;;;0.30;0.30;;;7.60;99.90;;;;;;4976617;28;20180;-83
2023/01/15 02:52:52;;;;;;;0.10;0.10;;;7.60;99.90;;;;;;4958575;28;20207;-83
2023/01/15 02:55:24;;;;;;;0.30;0.30;;;7.50;99.90;;;;;;4959394;28;20204;-83
2023/01/15 02:57:54;;;;;;;0.10;0.10;;;7.50;99.90;;;;;;4959307;28;20226;-83
2023/01/15 03:00:23;;;;;;;1.93;0.20;;;7.40;99.90;;;;;;4976593;28;20181;-83
2023/01/15 03:03:04;;;;;;;0.63;0.47;;;7.40;99.90;;;;;;4976508;28;20287;-83
2023/01/15 03:05:38;;;;;;;0.17;0.17;;;7.30;99.90;;;;;;4976517;28;20179;-83
2023/01/15 03:08:07;;;;;;;0.20;0.20;;;7.20;99.90;;;;;;4958925;28;20182;-82
2023/01/15 03:10:45;;;;;;;0.93;0.30;;;7.10;99.90;;;;;;4958586;28;20636;-83
2023/01/15 03:13:15;;;;;;;0.17;0.17;;;7.10;99.90;;;;;;4975951;28;20244;-82
2023/01/15 03:18:52;;;;;;;0.10;0.10;;;7.00;99.90;;;;;;4976075;28;20181;-82
2023/01/15 03:21:41;;;;;;;0.50;0.03;;;6.80;99.90;;;;;;4976099;28;20198;-82
2023/01/15 03:24:09;;;;;;;0.10;0.10;;;6.70;99.90;;;;;;4958768;28;20188;-82
2023/01/15 03:26:34;;;;;;;0.33;0.20;;;6.70;99.90;;;;;;4958337;28;20189;-83
2023/01/15 03:29:04;;;;;;;0.80;0.20;;;6.70;99.90;;;;;;4958573;28;20183;-83
2023/01/15 03:31:30;;;;;;;0.30;0.30;;;6.70;99.90;;;;;;4958617;28;20202;-83
2023/01/15 03:33:57;;;;;;;0.30;0.20;;;6.60;99.90;;;;;;4958666;28;20208;-83
2023/01/15 03:36:22;;;;;;;0.57;0.20;;;6.60;99.90;;;;;;4975865;28;20256;-83
2023/01/15 03:38:49;;;;;;;0.40;0.30;;;6.50;99.90;;;;;;4975871;28;20179;-83
2023/01/15 03:41:38;;;;;;;0.30;0.20;;;6.50;99.90;;;;;;4958002;28;20690;-83
2023/01/15 03:44:25;;;;;;;0.30;0.30;;;6.40;99.90;;;;;;4975764;28;20184;-83
2023/01/15 03:47:09;;;;;;;0.20;0.20;;;6.40;99.90;;;;;;4958438;28;20571;-83
2023/01/15 03:49:56;;;;;;;0.40;0.40;;;6.30;99.90;;;;;;4958528;28;20175;-82
2023/01/15 03:52:51;;;;;;;0.60;0.50;;;6.30;99.90;;;;;;4975324;28;20272;-83
2023/01/15 03:55:31;;;;;;;0.20;0.20;;;6.30;99.90;;;;;;4962291;28;20301;-83
2023/01/15 03:58:01;;;;;;;0.20;0.20;;;6.30;99.90;;;;;;4975292;28;20182;-83
2023/01/15 04:00:34;;;;;;;0.10;0.10;;;6.30;99.90;;;;;;4994423;28;20185;-82
2023/01/15 04:03:02;;;;;;;0.20;0.20;;;6.30;99.90;;;;;;4996408;28;20227;-83
2023/01/15 04:05:30;;;;;;;0.30;0.30;;;6.30;99.90;;;;;;4996152;28;20176;-82
2023/01/15 04:07:58;;;;;;;0.30;0.30;;;6.20;99.90;;;;;;5014249;28;20662;-83
2023/01/15 04:10:23;;;;;;;0.43;0.20;;;6.20;99.90;;;;;;4996607;28;20187;-83
2023/01/15 04:12:49;;;;;;;0.60;0.33;;;6.10;99.90;;;;;;4996339;28;20214;-83
2023/01/15 04:15:15;;;;;;;0.20;0.20;;;6.10;99.90;;;;;;4996354;28;20204;-83
2023/01/15 04:17:41;;;;;;;0.20;0.20;;;6.00;99.90;;;;;;4996650;28;20182;-82
2023/01/15 04:20:08;;;;;;;0.20;0.20;;;6.00;99.90;;;;;;5013935;28;20176;-83
2023/01/15 04:22:34;;;;;;;0.20;0.20;;;6.00;99.90;;;;;;4996129;28;20211;-82
2023/01/15 04:25:04;;;;;;;0.23;0.10;;;5.90;99.90;;;;;;4996477;28;20176;-83
2023/01/15 04:27:30;;;;;;;0.33;0.30;;;5.90;99.90;;;;;;4996242;28;20179;-83
2023/01/15 04:29:55;;;;;;;0.17;0.17;;;5.70;99.90;;;;;;4996228;28;20179;-83
2023/01/15 04:32:21;;;;;;;0.10;0.10;;;5.70;99.90;;;;;;5013820;28;20226;-83
2023/01/15 04:34:47;;;;;;;0.30;0.20;;;5.70;99.90;;;;;;4996383;28;20270;-83
2023/01/15 04:37:13;;;;;;;0.10;0.10;;;5.60;99.90;;;;;;4996361;28;20230;-83
2023/01/15 04:39:39;;;;;;;0.20;0.20;;;5.50;99.90;;;;;;4996067;28;20177;-82
2023/01/15 04:44:48;;;;;;;0.30;0.30;;;5.40;99.90;;;;;;5013854;28;20174;-83
2023/01/15 04:47:14;;;;;;;0.50;0.17;;;5.40;99.90;;;;;;4995823;28;20183;-82
2023/01/15 04:49:39;;;;;;;0.40;0.30;;;5.40;99.90;;;;;;4995643;28;20183;-83
2023/01/15 04:52:05;;;;;;;0.40;0.20;;;5.40;99.90;;;;;;4995785;28;20206;-83
2023/01/15 04:54:32;;;;;;;0.77;0.10;;;5.40;99.90;;;;;;4996005;28;20175;-83
2023/01/15 04:56:57;;;;;;;0.30;0.27;;;5.30;99.90;;;;;;4982060;28;20207;-83
2023/01/15 04:59:25;;;;;;;1.07;0.20;;;5.30;99.90;;;;;;4974409;28;20187;-83
2023/01/15 05:01:51;;;;;;;0.30;0.30;;;5.30;99.90;;;;;;4956897;28;20613;-83
2023/01/15 05:04:17;;;;;;;0.73;0.33;;;5.30;99.90;;;;;;4957093;28;20181;-84
2023/01/15 05:06:42;;;;;;;0.30;0.30;;;5.20;99.90;;;;;;4956764;28;20188;-84
2023/01/15 05:09:08;;;;;;;0.23;0.23;;;5.20;99.90;;;;;;4974290;28;20216;-83
2023/01/15 05:11:35;;;;;;;0.27;0.27;;;5.10;99.90;;;;;;4956548;28;20212;-84
2023/01/15 05:14:01;;;;;;;0.27;0.27;;;5.10;99.90;;;;;;4973663;28;20199;-83
2023/01/15 05:16:28;;;;;;;0.60;0.40;;;4.90;99.90;;;;;;4973474;28;20205;-83
2023/01/15 05:18:57;;;;;;;0.33;0.27;;;4.90;99.90;;;;;;4956899;28;20180;-83
2023/01/15 05:21:25;;;;;;;0.20;0.20;;;4.90;99.90;;;;;;4973473;28;20204;-83
2023/01/15 05:23:53;;;;;;;2.17;0.60;;;4.90;99.90;;;;;;4956504;28;20264;-83
2023/01/15 05:26:20;;;;;;;0.37;0.30;;;4.90;99.90;;;;;;4956832;28;20187;-83
2023/01/15 05:28:47;;;;;;;1.87;0.30;;;4.90;99.90;;;;;;4973623;28;20605;-83
2023/01/15 05:31:15;;;;;;;0.20;0.20;;;4.80;99.90;;;;;;4973868;28;20283;-83
2023/01/15 05:33:42;;;;;;;0.97;0.53;;;4.80;99.90;;;;;;4956644;28;20187;-83
2023/01/15 05:36:16;;;;;;;0.37;0.37;;;4.70;99.90;;;;;;4956270;28;20202;-84
2023/01/15 05:38:42;;;;;;;0.47;0.30;;;4.70;99.90;;;;;;4956326;28;20259;-83
2023/01/15 05:43:58;;;;;;;0.60;0.37;;;4.70;99.90;;;;;;4973951;28;20170;-84
2023/01/15 05:46:24;;;;;;;1.33;0.60;;;4.70;99.90;;;;;;4973787;28;20594;-83
2023/01/15 05:48:50;;;;;;;1.50;0.43;;;4.70;99.90;;;;;;4956297;28;20187;-84
2023/01/15 05:51:15;;;;;;;1.37;0.50;;;4.60;99.90;;;;;;4973318;28;20211;-83
2023/01/15 05:53:41;;;;;;;0.40;0.40;;;4.60;99.90;;;;;;4956483;28;20263;-83
2023/01/15 05:56:07;;;;;;;1.13;0.80;;;4.60;99.90;;;;;;4956464;28;20212;-83
2023/01/15 05:58:33;;;;;;;0.50;0.50;;;4.60;99.90;;;;;;4973356;28;20631;-84
2023/01/15 06:00:59;;;;;;;1.70;0.37;;;4.70;99.90;;;;;;4973503;28;20227;-84
2023/01/15 06:03:25;;;;;;;0.97;0.77;;;4.70;99.90;;;;;;4956046;28;20173;-84
2023/01/15 06:05:52;;;;;;;0.30;0.30;;;4.70;99.90;;;;;;4956410;28;20172;-84
2023/01/15 06:08:17;;;;;;;1.83;0.70;;;4.70;99.90;;;;;;4975802;28;20196;-93
2023/01/15 06:10:47;;;;;;;0.60;0.47;;;4.60;99.90;;;;;;4965474;28;20177;-93
2023/01/15 06:13:13;;;;;;;1.73;0.90;;;4.60;99.90;;;;;;4982335;28;20235;-93
2023/01/15 06:15:39;;;;;;;0.67;0.63;;;4.70;99.90;;;;;;4964731;28;20694;-93
2023/01/15 06:18:05;;;;;;;0.83;0.57;;;4.70;99.90;;;;;;4966220;28;20177;-93
2023/01/15 06:20:31;;;;;;;0.67;0.50;;;4.60;99.90;;;;;;4965566;28;20241;-93
2023/01/15 06:22:56;;;;;;;0.77;0.43;;;4.60;99.90;;;;;;4983051;28;20193;-94
2023/01/15 06:25:22;;;;;;;0.53;0.23;;;4.60;99.90;;;;;;4979998;28;20204;-92
2023/01/15 06:27:48;;;;;;;0.93;0.47;;;4.50;99.90;;;;;;4959112;28;20177;-92
2023/01/15 06:30:14;;;;;;;0.60;0.53;;;4.60;99.90;;;;;;4978593;28;20181;-92
2023/01/15 06:32:40;;;;;;;0.60;0.57;;;4.60;99.90;;;;;;4961815;28;20200;-92
2023/01/15 06:35:06;;;;;;;1.37;0.70;;;4.60;99.90;;;;;;4978974;28;20177;-92
2023/01/15 06:37:32;;;;;;;0.77;0.70;;;4.60;99.90;;;;;;4979016;28;20187;-92
2023/01/15 06:39:57;;;;;;;3.23;0.50;;;4.60;99.90;;;;;;4961307;28;20168;-91
2023/01/15 06:47:56;;;;;;;1.53;0.80;;;4.60;99.90;;;;;;4978637;28;20245;-92
2023/01/15 06:50:23;;;;;;;0.50;0.40;;;4.60;99.90;;;;;;4978137;28;20200;-92
2023/01/15 06:52:49;;;;;;;1.67;0.60;;;4.60;99.90;;;;;;4978283;28;20260;-91
2023/01/15 06:55:14;;;;;;;2.33;0.60;;;4.50;99.90;;;;;;4960700;28;20240;-92
2023/01/15 06:57:40;;;;;;;0.40;0.30;;;4.50;99.90;;;;;;4978081;28;20169;-92
2023/01/15 07:00:07;;;;;;;0.50;0.40;;;4.40;99.90;;;;;;4977400;28;20176;-92
2023/01/15 07:02:33;;;;;;;1.63;1.00;;;4.40;99.90;;;;;;4959278;28;20224;-91
2023/01/15 07:04:59;;;;;;;1.20;0.80;;;4.50;99.90;;;;;;4977206;28;20705;-91
2023/01/15 07:07:26;;;;;;;2.20;1.67;;;4.50;99.90;;;;;;4959343;28;20212;-90
2023/01/15 07:09:52;;;;;;;1.37;0.80;;;4.40;99.90;;;;;;4959124;28;20196;-91
2023/01/15 07:12:17;;;;;;;0.40;0.33;;;4.50;99.90;;;;;;4977563;28;20589;-90
2023/01/15 07:14:43;;;;;;;0.40;0.40;;;4.50;99.90;;;;;;4959502;28;20231;-91
2023/01/15 07:17:09;;;;;;;0.30;0.30;;;4.40;99.90;;;;;;4976691;28;20215;-92
2023/01/15 07:19:36;;;;;;;1.10;0.90;;;4.40;99.90;;;;;;4976775;28;20204;-90
2023/01/15 07:22:02;;;;;;;0.50;0.50;;;4.40;99.90;;;;;;4960620;28;20192;-91
2023/01/15 07:24:27;;;;;;;0.77;0.70;;;4.30;99.90;;;;;;4959952;28;20187;-89
2023/01/15 07:26:53;;;;;;;0.60;0.60;;;4.30;99.90;;;;;;4976454;28;20176;-90
2023/01/15 07:29:19;;;;;;;1.53;0.90;;;4.30;99.90;;;;;;4959175;28;20226;-89
2023/01/15 07:31:44;;;;;;;0.40;0.40;;;4.30;99.90;;;;;;4975797;28;20208;-90
2023/01/15 07:34:10;;;;;;;0.50;0.50;;;4.30;99.90;;;;;;4975943;28;20194;-90
2023/01/15 07:36:36;;;;;;;0.67;0.50;;;4.30;99.90;;;;;;4958938;28;20208;-88
2023/01/15 07:39:04;;;;;;;0.70;0.60;;;4.30;99.90;;;;;;4958463;28;20187;-90
2023/01/15 07:49:47;;;;;;;1.00;0.53;;;4.30;99.90;;;;;;4976812;28;20175;-90
2023/01/15 07:52:15;;;;;;;1.33;0.60;;;4.40;99.90;;;;;;4958992;28;20231;-92
2023/01/15 07:54:41;;;;;;;0.43;0.30;;;4.40;99.90;;;;;;4959327;28;20179;-88
2023/01/15 07:57:07;;;;;;;0.67;0.60;;;4.50;99.90;;;;;;4959167;28;20207;-91
2023/01/15 07:59:33;;;;;;;0.43;0.40;;;4.50;99.90;;;;;;4958344;28;20172;-89
2023/01/15 08:01:58;;;;;;;1.00;0.77;;;4.30;99.90;;;;;;4975173;28;20194;-87
2023/01/15 08:04:24;;;;;;;0.87;0.73;;;4.30;99.90;;;;;;4957777;28;20176;-86
2023/01/15 08:06:49;;;;;;;1.83;1.27;;;4.20;99.90;;;;;;4958163;28;20184;-85
2023/01/15 08:09:15;;;;;;;1.50;0.80;;;4.20;99.90;;;;;;4958016;28;20530;-89
2023/01/15 08:17:09;;;;;;;1.20;0.90;;;4.10;99.90;;;;;;5014080;28;20414;-87
2023/01/15 08:19:34;;;;;;;0.50;0.50;;;4.10;99.90;;;;;;4996549;28;20704;-85
2023/01/15 08:22:00;;;;;;;0.50;0.50;;;4.10;99.90;;;;;;5014287;28;20200;-88
2023/01/15 08:24:27;;;;;;;1.70;0.80;;;4.10;99.90;;;;;;5014515;28;20174;-89
2023/01/15 08:26:53;;;;;;;4.27;3.10;;;4.10;99.90;;;;;;4996612;28;20184;-87
2023/01/15 08:29:19;;;;;;;1.73;0.80;;;4.10;99.90;;;;;;4996695;28;20328;-88
2023/01/15 08:31:45;;;;;;;0.90;0.40;;;4.00;99.90;;;;;;5013880;28;20253;-87
2023/01/15 08:34:11;;;;;;;1.20;0.80;;;4.00;99.90;;;;;;4996226;28;20231;-89
2023/01/15 08:36:36;;;;;;;0.30;0.30;;;4.00;99.90;;;;;;5014026;28;20669;-89
2023/01/15 08:39:03;;;;;;;1.00;0.70;;;4.00;99.90;;;;;;4996162;28;20206;-89
2023/01/15 08:41:29;;;;;;;0.40;0.40;;;3.90;99.90;;;;;;4996425;28;20217;-89
2023/01/15 08:43:55;;;;;;;1.23;0.70;;;3.80;99.90;;;;;;5014312;28;20240;-89
2023/01/15 08:46:20;;;;;;;5.50;2.97;;;3.80;99.90;;;;;;4996424;28;20280;-89
2023/01/15 08:48:47;;;;;;;4.33;3.17;;;3.80;99.90;;;;;;4996508;28;20182;-89
2023/01/15 08:51:13;;;;;;;1.97;1.20;;;3.80;99.90;;;;;;4995656;28;20714;-89
2023/01/15 08:53:38;;;;;;;0.80;0.63;;;3.80;99.90;;;;;;4996094;28;20191;-89
2023/01/15 08:56:12;;;;;;;0.50;0.50;;;3.70;99.90;;;;;;5013848;28;20194;-89
2023/01/15 08:58:38;;;;;;;0.80;0.80;;;3.70;99.90;;;;;;5013872;28;20166;-89
2023/01/15 09:01:05;;;;;;;0.40;0.40;;;3.70;99.90;;;;;;5013816;28;20233;-89
2023/01/15 09:03:31;;;;;;;0.63;0.53;;;3.60;99.90;;;;;;5013865;28;20181;-89
2023/01/15 09:05:58;;;;;;;0.70;0.60;;;3.50;99.90;;;;;;4996427;28;20257;-90
2023/01/15 09:08:24;;;;;;;0.57;0.57;;;3.50;99.90;;;;;;5013929;28;20182;-89
2023/01/15 09:10:50;;;;;;;0.70;0.70;;;3.50;99.90;;;;;;4996178;28;20186;-89
2023/01/15 09:13:15;;;;;;;0.60;0.60;;;3.40;99.90;;;;;;4996429;28;20223;-89
2023/01/15 09:15:41;;;;;;;1.03;0.70;;;3.40;99.90;;;;;;4996141;28;20611;-89
2023/01/15 09:18:09;;;;;;;0.87;0.67;;;3.30;99.90;;;;;;5013611;28;20185;-89
2023/01/15 09:20:35;;;;;;;0.77;0.70;;;3.30;99.90;;;;;;4995921;28;20676;-89
2023/01/15 09:23:01;;;;;;;1.10;0.90;;;3.20;99.90;;;;;;4995477;28;20198;-89
2023/01/15 09:25:26;;;;;;;0.97;0.80;;;3.00;99.90;;;;;;4996053;28;20180;-90
2023/01/15 09:27:55;;;;;;;3.20;0.90;;;2.90;99.90;;;;;;4996071;28;20180;-90
2023/01/15 09:30:21;;;;;;;1.60;0.90;;;2.80;99.90;;;;;;5013528;28;20185;-89
2023/01/15 09:32:47;;;;;;;1.07;0.77;;;2.80;99.90;;;;;;4995872;28;20226;-89
2023/01/15 09:35:13;;;;;;;4.13;3.17;;;2.70;99.90;;;;;;4995855;28;20230;-89
2023/01/15 09:37:39;;;;;;;2.40;2.20;;;2.70;99.90;;;;;;5012678;28;20184;-89
2023/01/15 09:40:08;;;;;;;1.37;1.27;;;2.70;99.90;;;;;;4993390;28;20232;-89
2023/01/15 09:42:33;;;;;;;1.60;1.30;;;2.70;99.90;;;;;;4993360;28;20197;-89
2023/01/15 09:45:21;;;;;;;1.50;1.40;;;2.50;99.90;;;;;;4976245;28;20240;-89
2023/01/15 09:47:55;;;;;;;1.20;1.10;;;2.40;99.90;;;;;;4976009;28;20187;-89
2023/01/15 09:50:33;;;;;;;1.90;1.27;;;2.30;99.90;;;;;;4976387;28;20268;-89
2023/01/15 09:53:20;;;;;;;1.37;1.20;;;2.20;99.90;;;;;;4976154;28;20226;-89
2023/01/15 09:55:51;;;;;;;1.60;1.23;;;2.10;99.90;;;;;;4993847;28;20207;-89
2023/01/15 09:58:19;;;;;;;2.10;1.50;;;2.00;99.90;;;;;;4975773;28;20650;-89
2023/01/15 10:00:48;;;;;;;1.73;1.40;;;2.00;99.90;;;;;;4975413;28;20449;-89
2023/01/15 10:03:43;;;;;;;1.57;1.20;;;2.00;99.90;;;;;;4995460;28;20203;-88
2023/01/15 10:06:28;;;;;;;2.17;1.70;;;2.00;99.90;;;;;;4979547;28;20213;-88
2023/01/15 10:09:16;;;;;;;1.83;1.20;;;2.00;99.90;;;;;;4979614;28;20211;-89
2023/01/15 10:15:08;;;;;;;1.20;1.03;;;1.90;99.90;;;;;;4996988;28;20218;-88
2023/01/15 10:17:46;;;;;;;1.37;1.10;;;1.80;99.90;;;;;;4979832;28;20192;-89
2023/01/15 10:20:43;;;;;;;0.70;0.70;;;1.80;99.90;;;;;;4979029;28;20247;-88
2023/01/15 10:23:37;;;;;;;0.50;0.50;;;1.70;99.90;;;;;;4978949;28;20212;-88
2023/01/15 10:26:17;;;;;;;0.30;0.30;;;1.80;99.90;;;;;;4978937;28;20184;-87
2023/01/15 10:28:52;;;;;;;0.30;0.30;;;1.90;99.90;;;;;;4979286;28;20199;-88
2023/01/15 10:31:23;;;;;;;0.50;0.50;;;1.90;99.90;;;;;;4979222;28;20199;-90
2023/01/15 10:34:09;;;;;;;0.30;0.30;;;2.00;99.90;;;;;;4978965;28;20172;-89
2023/01/15 10:37:00;;;;;;;0.23;0.20;;;1.90;99.90;;;;;;4978203;28;20231;-89
2023/01/15 10:39:31;;;;;;;0.30;0.30;;;2.00;99.90;;;;;;4996470;28;20255;-89
2023/01/15 10:41:59;;;;;;;0.40;0.40;;;2.00;99.90;;;;;;4978738;28;20317;-89
2023/01/15 10:44:53;;;;;;;0.43;0.43;;;2.10;99.90;;;;;;4979065;28;20317;-89
2023/01/15 10:47:25;;;;;;;0.60;0.50;;;2.10;99.90;;;;;;4978962;28;20182;-88
2023/01/15 10:49:51;;;;;;;0.50;0.50;;;2.20;99.90;;;;;;4978623;28;20172;-88
2023/01/15 10:52:46;;;;;;;0.70;0.60;;;2.20;99.90;;;;;;4978664;28;20211;-88
2023/01/15 10:55:31;;;;;;;0.70;0.70;;;2.20;99.90;;;;;;4976086;28;20650;-87
2023/01/15 10:58:27;;;;;;;116.60;40.13;;;2.20;99.90;;;;;;4968955;28;20180;-86
2023/01/15 11:01:03;;;;;;;20.93;9.63;;;2.70;99.90;;;;;;4986634;28;20299;-85
2023/01/15 11:03:36;;;;;;;12.80;5.33;;;2.70;99.90;;;;;;4998182;28;20191;-86
2023/01/15 11:06:02;;;;;;;5.73;2.63;;;2.70;99.90;;;;;;5015393;28;20657;-86
2023/01/15 11:08:30;;;;;;;0.90;0.67;;;2.80;99.90;;;;;;4998169;28;20181;-85
2023/01/15 11:11:00;;;;;;;0.80;0.63;;;2.90;99.90;;;;;;4997546;28;20202;-87
2023/01/15 11:19:37;;;;;;;0.97;0.87;;;2.70;99.90;;;;;;5015228;28;20159;-87
2023/01/15 11:22:19;;;;;;;0.90;0.80;;;2.80;99.90;;;;;;5015240;28;20187;-87
2023/01/15 11:24:52;;;;;;;0.83;0.80;;;2.90;99.90;;;;;;5015448;28;20189;-88
2023/01/15 11:27:25;;;;;;;1.00;0.90;;;3.00;99.90;;;;;;5015052;28;20172;-87
2023/01/15 11:29:56;;;;;;;0.90;0.90;;;3.00;99.90;;;;;;4997178;28;20175;-89
2023/01/15 11:32:31;;;;;;;1.20;1.00;;;3.10;99.90;;;;;;5015264;28;20253;-84
2023/01/15 11:34:59;;;;;;;2.10;1.03;;;3.10;99.90;;;;;;4998099;28;20663;-84
2023/01/15 11:37:26;;;;;;;1.00;0.90;;;3.20;99.90;;;;;;4997891;28;20218;-85
2023/01/15 11:40:06;;;;;;;5.07;1.77;;;3.30;99.90;;;;;;4979194;28;20173;-84
2023/01/15 11:51:12;;;;;;;1.63;1.20;;;3.70;99.90;;;;;;4978362;28;20227;-90
2023/01/15 11:53:45;;;;;;;1.30;1.20;;;3.70;99.90;;;;;;4959608;28;20173;-90
2023/01/15 11:56:14;;;;;;;1.20;0.90;;;3.80;99.90;;;;;;4958069;28;20202;-90
2023/01/15 11:58:44;;;;;;;1.83;1.10;;;3.80;99.90;;;;;;4958143;28;20551;-90
2023/01/15 12:01:32;;;;;;;2.07;1.70;;;3.80;99.90;;;;;;4990161;28;20214;-90
2023/01/15 12:04:00;;;;;;;2.73;1.90;;;3.90;99.90;;;;;;4996930;28;20202;-90
2023/01/15 12:06:27;;;;;;;1.80;1.50;;;3.90;99.90;;;;;;4996746;28;20181;-90
2023/01/15 12:09:22;;;;;;;2.37;1.93;;;4.00;99.90;;;;;;4996775;28;20210;-91
2023/01/15 12:11:47;;;;;;;1.70;1.23;;;4.00;99.90;;;;;;4996432;28;20217;-91
2023/01/15 12:14:38;;;;;;;1.83;1.47;;;4.10;99.90;;;;;;4996795;28;20551;-90
2023/01/15 12:17:22;;;;;;;1.70;1.47;;;4.20;99.90;;;;;;4996403;28;20190;-91
2023/01/15 12:20:12;;;;;;;1.50;1.10;;;4.30;99.90;;;;;;4996461;28;20241;-91
2023/01/15 12:22:56;;;;;;;2.03;1.10;;;4.50;99.90;;;;;;5013943;28;20688;-90
2023/01/15 12:25:43;;;;;;;2.87;1.77;;;4.80;99.90;;;;;;5012889;28;20695;-91
2023/01/15 12:28:34;;;;;;;1.60;1.20;;;4.90;99.90;;;;;;4996193;28;20649;-91
2023/01/15 12:31:07;;;;;;;0.97;0.80;;;4.90;99.90;;;;;;4998764;28;20168;-91
2023/01/15 12:33:56;;;;;;;2.00;1.80;;;4.90;99.90;;;;;;4976648;28;20222;-90
2023/01/15 12:36:28;;;;;;;1.50;1.20;;;5.20;99.90;;;;;;4978090;28;20716;-92
2023/01/15 12:39:19;;;;;;;1.57;0.90;;;5.50;99.90;;;;;;4976672;28;20171;-90
2023/01/15 12:44:59;;;;;;;1.40;0.90;;;5.70;99.90;;;;;;4994131;28;20251;-90
2023/01/15 12:47:36;;;;;;;1.33;0.80;;;5.70;99.90;;;;;;4976537;28;20178;-89
2023/01/15 12:50:22;;;;;;;3.27;1.50;;;5.60;99.90;;;;;;4976281;28;20178;-90
2023/01/15 12:52:55;;;;;;;1.60;1.40;;;5.70;99.90;;;;;;4975749;28;20235;-89
2023/01/15 12:55:27;;;;;;;1.03;0.93;;;5.60;99.90;;;;;;4976153;28;20183;-90
2023/01/15 12:57:58;;;;;;;1.30;0.87;;;5.50;99.90;;;;;;4993883;28;20182;-90
2023/01/15 13:00:40;;;;;;;2.00;0.90;;;5.30;99.90;;;;;;4993712;28;20299;-90
2023/01/15 13:03:15;;;;;;;2.20;1.10;;;5.40;99.90;;;;;;4976380;28;20199;-90
2023/01/15 13:05:56;;;;;;;1.87;0.83;;;5.50;99.90;;;;;;4993661;28;20187;-90
2023/01/15 13:08:55;;;;;;;1.47;0.70;;;5.30;99.90;;;;;;4976438;28;20172;-90
2023/01/15 13:11:24;;;;;;;1.77;1.10;;;5.30;99.90;;;;;;4994274;28;20217;-89
2023/01/15 13:13:59;;;;;;;1.30;0.90;;;5.50;99.90;;;;;;4993733;28;20175;-90
2023/01/15 13:16:37;;;;;;;1.87;1.30;;;5.60;99.90;;;;;;4993606;28;20192;-90
2023/01/15 13:19:20;;;;;;;3.23;1.00;;;6.00;99.90;;;;;;4976077;28;20241;-90
2023/01/15 13:21:51;;;;;;;2.10;1.30;;;6.20;99.90;;;;;;4993260;28;20203;-90
2023/01/15 13:24:40;;;;;;;2.10;0.93;;;6.40;99.90;;;;;;4976120;28;20166;-91
2023/01/15 13:27:11;;;;;;;1.70;0.90;;;6.30;99.90;;;;;;4976162;28;20177;-90
2023/01/15 13:30:01;;;;;;;0.80;0.80;;;6.30;99.90;;;;;;4975878;28;20181;-90
2023/01/15 13:32:51;;;;;;;1.70;1.33;;;6.40;99.90;;;;;;5011863;28;20203;-90
2023/01/15 13:35:51;;;;;;;2.40;1.50;;;6.60;99.90;;;;;;4995459;28;20176;-90
2023/01/15 13:38:25;;;;;;;1.50;0.80;;;6.50;99.90;;;;;;4980614;28;20726;-90
2023/01/15 13:40:53;;;;;;;1.23;0.90;;;6.40;99.90;;;;;;4975426;28;20193;-90
2023/01/15 13:43:28;;;;;;;2.70;0.90;;;6.20;99.90;;;;;;4975866;28;20188;-90
2023/01/15 13:45:55;;;;;;;1.63;1.00;;;6.00;99.90;;;;;;4975814;28;20177;-90
2023/01/15 13:48:41;;;;;;;2.07;1.30;;;5.80;99.90;;;;;;4976032;28;20181;-90
2023/01/15 13:51:31;;;;;;;1.73;1.00;;;5.60;99.90;;;;;;4993185;28;20189;-90
2023/01/15 13:53:59;;;;;;;0.83;0.83;;;5.60;99.90;;;;;;4993137;28;20252;-90
2023/01/15 13:56:31;;;;;;;1.27;1.17;;;5.40;99.90;;;;;;4975640;28;20204;-90
2023/01/15 13:59:04;;;;;;;3.80;2.43;;;5.40;99.90;;;;;;4975816;28;20207;-90
2023/01/15 14:01:29;;;;;;;1.27;1.17;;;5.30;99.90;;;;;;4975570;28;20654;-90
2023/01/15 14:04:07;;;;;;;2.17;1.20;;;5.40;99.90;;;;;;4993116;28;20175;-90
2023/01/15 14:06:36;;;;;;;2.83;1.20;;;5.50;99.90;;;;;;4993148;28;20622;-90
2023/01/15 14:09:04;;;;;;;1.83;1.00;;;5.60;99.90;;;;;;4975701;28;20211;-89
2023/01/15 14:11:40;;;;;;;3.13;1.83;;;5.60;99.90;;;;;;4975319;28;20212;-90